sensor_id;sensor_type;location;lat;lon;timestamp;pressure;altitude;pressure_sealevel;temperature;humidity
78309;BME280;67566;42.022;21.356;2023-12-20T00:02:08;99164.31;;;0.15;83.09
78309;BME280;67566;42.022;21.356;2023-12-20T00:04:34;99156.22;;;0.16;82.59
78309;BME280;67566;42.022;21.356;2023-12-20T00:07:00;99158.84;;;0.16;82.34
78309;BME280;67566;42.022;21.356;2023-12-20T00:09:25;99159.44;;;0.18;82.47
78309;BME280;67566;42.022;21.356;2023-12-20T00:11:50;99154.78;;;0.21;82.49
78309;BME280;67566;42.022;21.356;2023-12-20T00:14:16;99147.94;;;0.20;81.95
78309;BME280;67566;42.022;21.356;2023-12-20T00:16:41;99135.44;;;0.22;82.37
78309;BME280;67566;42.022;21.356;2023-12-20T00:19:07;99137.47;;;0.20;81.96
78309;BME280;67566;42.022;21.356;2023-12-20T00:21:33;99134.78;;;0.08;82.06
78309;BME280;67566;42.022;21.356;2023-12-20T00:23:58;99126.78;;;0.03;82.57
78309;BME280;67566;42.022;21.356;2023-12-20T00:26:23;99124.59;;;-0.01;82.21
78309;BME280;67566;42.022;21.356;2023-12-20T00:28:49;99125.69;;;-0.08;82.15
78309;BME280;67566;42.022;21.356;2023-12-20T00:31:14;99120.72;;;-0.16;82.10
78309;BME280;67566;42.022;21.356;2023-12-20T00:33:40;99126.91;;;-0.29;81.65
78309;BME280;67566;42.022;21.356;2023-12-20T00:36:08;99121.94;;;-0.38;82.74
78309;BME280;67566;42.022;21.356;2023-12-20T00:38:34;99121.72;;;-0.36;81.92
78309;BME280;67566;42.022;21.356;2023-12-20T00:41:00;99124.56;;;-0.38;82.31
78309;BME280;67566;42.022;21.356;2023-12-20T00:43:25;99119.97;;;-0.42;82.23
78309;BME280;67566;42.022;21.356;2023-12-20T00:45:51;99125.66;;;-0.45;82.20
78309;BME280;67566;42.022;21.356;2023-12-20T00:48:17;99118.00;;;-0.47;82.81
78309;BME280;67566;42.022;21.356;2023-12-20T00:50:42;99117.19;;;-0.47;82.68
78309;BME280;67566;42.022;21.356;2023-12-20T00:53:08;99120.63;;;-0.47;82.40
78309;BME280;67566;42.022;21.356;2023-12-20T00:55:33;99119.00;;;-0.48;82.89
78309;BME280;67566;42.022;21.356;2023-12-20T00:57:59;99114.19;;;-0.51;83.01
78309;BME280;67566;42.022;21.356;2023-12-20T01:00:25;99116.25;;;-0.53;82.58
78309;BME280;67566;42.022;21.356;2023-12-20T01:02:50;99114.44;;;-0.52;82.78
78309;BME280;67566;42.022;21.356;2023-12-20T01:05:17;99109.22;;;-0.52;83.10
78309;BME280;67566;42.022;21.356;2023-12-20T01:07:43;99110.38;;;-0.48;82.58
78309;BME280;67566;42.022;21.356;2023-12-20T01:10:08;99101.50;;;-0.47;82.70
78309;BME280;67566;42.022;21.356;2023-12-20T01:12:36;99105.94;;;-0.48;82.98
78309;BME280;67566;42.022;21.356;2023-12-20T01:15:01;99115.81;;;-0.50;82.54
78309;BME280;67566;42.022;21.356;2023-12-20T01:17:27;99108.97;;;-0.51;83.70
78309;BME280;67566;42.022;21.356;2023-12-20T01:19:52;99104.19;;;-0.54;83.21
78309;BME280;67566;42.022;21.356;2023-12-20T01:22:18;99099.97;;;-0.55;83.11
78309;BME280;67566;42.022;21.356;2023-12-20T01:24:44;99102.59;;;-0.55;83.02
78309;BME280;67566;42.022;21.356;2023-12-20T01:27:09;99099.19;;;-0.55;82.54
78309;BME280;67566;42.022;21.356;2023-12-20T01:29:35;99095.31;;;-0.53;82.76
78309;BME280;67566;42.022;21.356;2023-12-20T01:32:00;99096.50;;;-0.49;82.74
78309;BME280;67566;42.022;21.356;2023-12-20T01:34:26;99087.03;;;-0.50;82.91
78309;BME280;67566;42.022;21.356;2023-12-20T01:36:52;99091.47;;;-0.50;82.54
78309;BME280;67566;42.022;21.356;2023-12-20T01:39:17;99078.47;;;-0.57;82.83
78309;BME280;67566;42.022;21.356;2023-12-20T01:41:43;99075.84;;;-0.57;82.78
78309;BME280;67566;42.022;21.356;2023-12-20T01:44:08;99073.03;;;-0.55;82.64
78309;BME280;67566;42.022;21.356;2023-12-20T01:46:34;99074.03;;;-0.57;82.75
78309;BME280;67566;42.022;21.356;2023-12-20T01:49:00;99074.97;;;-0.69;82.81
78309;BME280;67566;42.022;21.356;2023-12-20T01:51:26;99072.03;;;-0.80;82.66
78309;BME280;67566;42.022;21.356;2023-12-20T01:53:52;99072.06;;;-0.86;82.75
78309;BME280;67566;42.022;21.356;2023-12-20T01:56:19;99068.09;;;-0.89;82.93
78309;BME280;67566;42.022;21.356;2023-12-20T01:58:47;99059.22;;;-0.88;83.19
78309;BME280;67566;42.022;21.356;2023-12-20T02:01:13;99065.31;;;-0.94;83.30
78309;BME280;67566;42.022;21.356;2023-12-20T02:03:40;99051.00;;;-0.91;83.58
78309;BME280;67566;42.022;21.356;2023-12-20T02:06:07;99048.59;;;-0.93;83.35
78309;BME280;67566;42.022;21.356;2023-12-20T02:08:33;99046.56;;;-0.91;83.17
78309;BME280;67566;42.022;21.356;2023-12-20T02:10:59;99039.75;;;-0.92;82.77
78309;BME280;67566;42.022;21.356;2023-12-20T02:13:25;99039.13;;;-0.87;83.34
78309;BME280;67566;42.022;21.356;2023-12-20T02:15:52;99036.28;;;-0.86;83.26
78309;BME280;67566;42.022;21.356;2023-12-20T02:18:17;99040.06;;;-0.82;83.03
78309;BME280;67566;42.022;21.356;2023-12-20T02:20:43;99036.00;;;-0.78;83.05
78309;BME280;67566;42.022;21.356;2023-12-20T02:23:08;99027.53;;;-0.73;83.06
78309;BME280;67566;42.022;21.356;2023-12-20T02:25:34;99029.72;;;-0.70;82.85
78309;BME280;67566;42.022;21.356;2023-12-20T02:27:59;99029.25;;;-0.67;83.21
78309;BME280;67566;42.022;21.356;2023-12-20T02:30:25;99027.22;;;-0.65;82.91
78309;BME280;67566;42.022;21.356;2023-12-20T02:32:51;99005.88;;;-0.62;82.82
78309;BME280;67566;42.022;21.356;2023-12-20T02:35:17;99009.91;;;-0.59;82.45
78309;BME280;67566;42.022;21.356;2023-12-20T02:37:43;99012.88;;;-0.55;82.82
78309;BME280;67566;42.022;21.356;2023-12-20T02:40:10;99011.84;;;-0.54;82.76
78309;BME280;67566;42.022;21.356;2023-12-20T02:42:35;99006.03;;;-0.57;82.79
78309;BME280;67566;42.022;21.356;2023-12-20T02:45:01;99008.66;;;-0.57;82.20
78309;BME280;67566;42.022;21.356;2023-12-20T02:47:26;99014.16;;;-0.65;82.64
78309;BME280;67566;42.022;21.356;2023-12-20T02:49:52;99013.06;;;-0.76;82.70
78309;BME280;67566;42.022;21.356;2023-12-20T02:52:18;99004.13;;;-0.86;82.17
78309;BME280;67566;42.022;21.356;2023-12-20T02:54:43;99000.19;;;-0.96;82.61
78309;BME280;67566;42.022;21.356;2023-12-20T02:57:09;99007.44;;;-0.98;82.37
78309;BME280;67566;42.022;21.356;2023-12-20T02:59:34;99001.25;;;-1.03;82.52
78309;BME280;67566;42.022;21.356;2023-12-20T03:02:00;99000.03;;;-1.01;82.62
78309;BME280;67566;42.022;21.356;2023-12-20T03:04:25;98990.16;;;-0.99;82.77
78309;BME280;67566;42.022;21.356;2023-12-20T03:06:50;98993.94;;;-0.95;82.45
78309;BME280;67566;42.022;21.356;2023-12-20T03:09:16;98997.16;;;-0.92;82.37
78309;BME280;67566;42.022;21.356;2023-12-20T03:11:41;98998.88;;;-0.86;82.84
78309;BME280;67566;42.022;21.356;2023-12-20T03:14:07;98999.03;;;-0.81;82.63
78309;BME280;67566;42.022;21.356;2023-12-20T03:16:32;98987.94;;;-0.77;82.57
78309;BME280;67566;42.022;21.356;2023-12-20T03:18:58;98985.47;;;-0.71;83.13
78309;BME280;67566;42.022;21.356;2023-12-20T03:21:24;98981.03;;;-0.71;82.41
78309;BME280;67566;42.022;21.356;2023-12-20T03:23:49;98984.66;;;-0.72;82.09
78309;BME280;67566;42.022;21.356;2023-12-20T03:26:14;98986.50;;;-0.72;82.54
78309;BME280;67566;42.022;21.356;2023-12-20T03:28:40;98983.66;;;-0.71;82.83
78309;BME280;67566;42.022;21.356;2023-12-20T03:31:05;98975.81;;;-0.71;82.53
78309;BME280;67566;42.022;21.356;2023-12-20T03:33:31;98983.81;;;-0.66;82.52
78309;BME280;67566;42.022;21.356;2023-12-20T03:35:56;98979.94;;;-0.63;83.04
78309;BME280;67566;42.022;21.356;2023-12-20T03:38:22;98984.75;;;-0.60;82.36
78309;BME280;67566;42.022;21.356;2023-12-20T03:40:49;98971.09;;;-0.62;82.67
78309;BME280;67566;42.022;21.356;2023-12-20T03:43:15;98971.09;;;-0.62;82.36
78309;BME280;67566;42.022;21.356;2023-12-20T03:45:42;98965.50;;;-0.66;82.60
78309;BME280;67566;42.022;21.356;2023-12-20T03:48:07;98972.41;;;-0.71;82.59
78309;BME280;67566;42.022;21.356;2023-12-20T03:50:34;98961.34;;;-0.73;82.39
78309;BME280;67566;42.022;21.356;2023-12-20T03:52:59;98958.38;;;-0.77;82.48
78309;BME280;67566;42.022;21.356;2023-12-20T03:55:25;98964.84;;;-0.80;82.64
78309;BME280;67566;42.022;21.356;2023-12-20T03:57:50;98957.28;;;-0.88;82.43
78309;BME280;67566;42.022;21.356;2023-12-20T04:00:16;98955.34;;;-0.92;82.52
78309;BME280;67566;42.022;21.356;2023-12-20T04:02:42;98951.53;;;-0.97;82.38
78309;BME280;67566;42.022;21.356;2023-12-20T04:05:08;98954.56;;;-1.00;82.63
78309;BME280;67566;42.022;21.356;2023-12-20T04:07:35;98940.72;;;-1.00;82.63
78309;BME280;67566;42.022;21.356;2023-12-20T04:10:01;98939.91;;;-1.01;82.57
78309;BME280;67566;42.022;21.356;2023-12-20T04:12:28;98931.72;;;-1.04;82.33
78309;BME280;67566;42.022;21.356;2023-12-20T04:14:53;98934.13;;;-1.03;82.49
78309;BME280;67566;42.022;21.356;2023-12-20T04:17:20;98930.94;;;-1.05;82.74
78309;BME280;67566;42.022;21.356;2023-12-20T04:19:45;98930.47;;;-1.02;82.27
78309;BME280;67566;42.022;21.356;2023-12-20T04:22:11;98929.25;;;-0.99;82.53
78309;BME280;67566;42.022;21.356;2023-12-20T04:24:36;98918.59;;;-0.98;82.69
78309;BME280;67566;42.022;21.356;2023-12-20T04:27:02;98918.59;;;-0.98;82.56
78309;BME280;67566;42.022;21.356;2023-12-20T04:29:27;98918.59;;;-0.98;82.49
78309;BME280;67566;42.022;21.356;2023-12-20T04:31:53;98922.22;;;-0.99;82.49
78309;BME280;67566;42.022;21.356;2023-12-20T04:34:19;98921.00;;;-0.96;82.12
78309;BME280;67566;42.022;21.356;2023-12-20T04:36:45;98919.75;;;-0.93;81.98
78309;BME280;67566;42.022;21.356;2023-12-20T04:39:12;98924.59;;;-0.97;81.97
78309;BME280;67566;42.022;21.356;2023-12-20T04:41:38;98913.69;;;-1.12;82.13
78309;BME280;67566;42.022;21.356;2023-12-20T04:44:04;98918.81;;;-1.24;81.75
78309;BME280;67566;42.022;21.356;2023-12-20T04:46:29;98913.44;;;-1.29;82.05
78309;BME280;67566;42.022;21.356;2023-12-20T04:48:55;98917.72;;;-1.35;81.85
78309;BME280;67566;42.022;21.356;2023-12-20T04:51:20;98913.94;;;-1.39;82.11
78309;BME280;67566;42.022;21.356;2023-12-20T04:53:46;98920.13;;;-1.34;82.02
78309;BME280;67566;42.022;21.356;2023-12-20T04:56:11;98928.53;;;-1.31;82.11
78309;BME280;67566;42.022;21.356;2023-12-20T04:58:37;98929.13;;;-1.29;82.74
78309;BME280;67566;42.022;21.356;2023-12-20T05:01:03;98928.53;;;-1.31;82.16
78309;BME280;67566;42.022;21.356;2023-12-20T05:03:30;98920.75;;;-1.38;82.68
78309;BME280;67566;42.022;21.356;2023-12-20T05:05:56;98922.78;;;-1.40;82.54
78309;BME280;67566;42.022;21.356;2023-12-20T05:08:21;98924.03;;;-1.43;82.74
78309;BME280;67566;42.022;21.356;2023-12-20T05:10:47;98924.72;;;-1.54;82.97
78309;BME280;67566;42.022;21.356;2023-12-20T05:13:12;98930.06;;;-1.67;82.88
78309;BME280;67566;42.022;21.356;2023-12-20T05:15:38;98936.00;;;-1.60;83.30
78309;BME280;67566;42.022;21.356;2023-12-20T05:18:04;98923.59;;;-1.65;83.05
78309;BME280;67566;42.022;21.356;2023-12-20T05:20:29;98918.63;;;-1.73;83.49
78309;BME280;67566;42.022;21.356;2023-12-20T05:22:55;98917.44;;;-1.77;84.42
78309;BME280;67566;42.022;21.356;2023-12-20T05:25:20;98914.47;;;-1.81;84.94
78309;BME280;67566;42.022;21.356;2023-12-20T05:27:46;98914.00;;;-1.71;84.85
78309;BME280;67566;42.022;21.356;2023-12-20T05:30:11;98916.34;;;-1.63;85.23
78309;BME280;67566;42.022;21.356;2023-12-20T05:32:37;98915.72;;;-1.58;85.66
78309;BME280;67566;42.022;21.356;2023-12-20T05:35:02;98907.66;;;-1.57;85.58
78309;BME280;67566;42.022;21.356;2023-12-20T05:37:28;98915.25;;;-1.48;85.61
78309;BME280;67566;42.022;21.356;2023-12-20T05:39:54;98913.38;;;-1.41;85.15
78309;BME280;67566;42.022;21.356;2023-12-20T05:42:19;98903.28;;;-1.38;85.97
78309;BME280;67566;42.022;21.356;2023-12-20T05:44:44;98902.06;;;-1.35;85.86
78309;BME280;67566;42.022;21.356;2023-12-20T05:47:10;98903.66;;;-1.34;85.96
78309;BME280;67566;42.022;21.356;2023-12-20T05:49:36;98899.59;;;-1.30;86.55
78309;BME280;67566;42.022;21.356;2023-12-20T05:52:01;98893.75;;;-1.25;87.01
78309;BME280;67566;42.022;21.356;2023-12-20T05:54:26;98892.28;;;-1.21;86.76
78309;BME280;67566;42.022;21.356;2023-12-20T05:56:52;98889.81;;;-1.16;87.36
78309;BME280;67566;42.022;21.356;2023-12-20T05:59:17;98890.97;;;-1.12;87.54
78309;BME280;67566;42.022;21.356;2023-12-20T06:01:43;98883.50;;;-1.08;87.59
78309;BME280;67566;42.022;21.356;2023-12-20T06:04:08;98880.03;;;-1.02;87.35
78309;BME280;67566;42.022;21.356;2023-12-20T06:06:34;98880.03;;;-1.02;87.60
78309;BME280;67566;42.022;21.356;2023-12-20T06:08:59;98875.59;;;-1.02;87.80
78309;BME280;67566;42.022;21.356;2023-12-20T06:11:26;98868.94;;;-0.98;88.16
78309;BME280;67566;42.022;21.356;2023-12-20T06:13:51;98864.84;;;-0.93;87.83
78309;BME280;67566;42.022;21.356;2023-12-20T06:16:18;98873.06;;;-0.90;87.85
78309;BME280;67566;42.022;21.356;2023-12-20T06:18:44;98865.38;;;-0.85;87.96
78309;BME280;67566;42.022;21.356;2023-12-20T06:21:10;98868.91;;;-0.79;88.49
78309;BME280;67566;42.022;21.356;2023-12-20T06:23:38;98868.03;;;-0.73;88.22
78309;BME280;67566;42.022;21.356;2023-12-20T06:26:04;98855.13;;;-0.68;88.17
78309;BME280;67566;42.022;21.356;2023-12-20T06:28:29;98853.66;;;-0.64;88.00
78309;BME280;67566;42.022;21.356;2023-12-20T06:30:55;98847.84;;;-0.66;88.01
78309;BME280;67566;42.022;21.356;2023-12-20T06:33:22;98855.06;;;-0.80;87.38
78309;BME280;67566;42.022;21.356;2023-12-20T06:35:48;98859.03;;;-0.77;87.62
78309;BME280;67566;42.022;21.356;2023-12-20T06:38:13;98865.00;;;-0.70;87.56
78309;BME280;67566;42.022;21.356;2023-12-20T06:40:39;98864.25;;;-0.77;87.11
78309;BME280;67566;42.022;21.356;2023-12-20T06:43:04;98864.94;;;-0.82;86.80
78309;BME280;67566;42.022;21.356;2023-12-20T06:45:32;98860.13;;;-0.85;86.56
78309;BME280;67566;42.022;21.356;2023-12-20T06:47:57;98858.16;;;-0.89;86.99
78309;BME280;67566;42.022;21.356;2023-12-20T06:50:23;98853.31;;;-0.86;87.20
78309;BME280;67566;42.022;21.356;2023-12-20T06:52:49;98845.38;;;-0.79;87.09
78309;BME280;67566;42.022;21.356;2023-12-20T06:55:15;98838.47;;;-0.73;87.01
78309;BME280;67566;42.022;21.356;2023-12-20T06:57:40;98842.25;;;-0.69;87.15
78309;BME280;67566;42.022;21.356;2023-12-20T07:00:06;98841.00;;;-0.67;86.75
78309;BME280;67566;42.022;21.356;2023-12-20T07:02:33;98842.81;;;-0.67;87.21
78309;BME280;67566;42.022;21.356;2023-12-20T07:04:59;98843.75;;;-0.62;87.24
78309;BME280;67566;42.022;21.356;2023-12-20T07:07:25;98842.44;;;-0.52;87.11
78309;BME280;67566;42.022;21.356;2023-12-20T07:09:51;98847.22;;;-0.49;87.67
78309;BME280;67566;42.022;21.356;2023-12-20T07:12:16;98846.13;;;-0.42;87.39
78309;BME280;67566;42.022;21.356;2023-12-20T07:14:45;98839.78;;;-0.34;87.25
78309;BME280;67566;42.022;21.356;2023-12-20T07:17:10;98838.06;;;-0.28;87.22
78309;BME280;67566;42.022;21.356;2023-12-20T07:19:38;98837.63;;;-0.25;87.54
78309;BME280;67566;42.022;21.356;2023-12-20T07:22:05;98837.72;;;-0.32;86.94
78309;BME280;67566;42.022;21.356;2023-12-20T07:24:30;98844.44;;;-0.36;87.32
78309;BME280;67566;42.022;21.356;2023-12-20T07:26:56;98838.72;;;-0.45;87.52
78309;BME280;67566;42.022;21.356;2023-12-20T07:29:22;98838.41;;;-0.36;87.33
78309;BME280;67566;42.022;21.356;2023-12-20T07:31:47;98828.66;;;-0.29;87.27
78309;BME280;67566;42.022;21.356;2023-12-20T07:34:13;98831.13;;;-0.34;87.16
78309;BME280;67566;42.022;21.356;2023-12-20T07:36:38;98829.31;;;-0.34;87.66
78309;BME280;67566;42.022;21.356;2023-12-20T07:39:04;98818.53;;;-0.26;87.45
78309;BME280;67566;42.022;21.356;2023-12-20T07:41:29;98815.59;;;-0.17;87.36
78309;BME280;67566;42.022;21.356;2023-12-20T07:43:54;98825.50;;;-0.08;87.04
78309;BME280;67566;42.022;21.356;2023-12-20T07:46:21;98823.78;;;-0.02;87.42
78309;BME280;67566;42.022;21.356;2023-12-20T07:48:49;98825.97;;;0.01;87.15
78309;BME280;67566;42.022;21.356;2023-12-20T07:51:15;98821.53;;;0.02;86.98
78309;BME280;67566;42.022;21.356;2023-12-20T07:53:41;98820.06;;;0.06;86.72
78309;BME280;67566;42.022;21.356;2023-12-20T07:56:19;98818.13;;;0.13;86.93
78309;BME280;67566;42.022;21.356;2023-12-20T07:58:45;98814.59;;;0.19;87.20
78309;BME280;67566;42.022;21.356;2023-12-20T08:01:13;98812.44;;;0.16;87.13
78309;BME280;67566;42.022;21.356;2023-12-20T08:03:38;98810.63;;;0.16;87.19
78309;BME280;67566;42.022;21.356;2023-12-20T08:06:04;98818.03;;;0.20;86.88
78309;BME280;67566;42.022;21.356;2023-12-20T08:08:30;98813.56;;;0.08;87.09
78309;BME280;67566;42.022;21.356;2023-12-20T08:10:55;98807.53;;;0.08;87.32
78309;BME280;67566;42.022;21.356;2023-12-20T08:13:23;98812.09;;;0.12;86.35
78309;BME280;67566;42.022;21.356;2023-12-20T08:15:51;98798.19;;;0.12;86.44
78309;BME280;67566;42.022;21.356;2023-12-20T08:18:17;98799.59;;;0.14;86.75
78309;BME280;67566;42.022;21.356;2023-12-20T08:20:42;98791.50;;;0.16;86.39
78309;BME280;67566;42.022;21.356;2023-12-20T08:23:08;98796.03;;;0.09;86.63
78309;BME280;67566;42.022;21.356;2023-12-20T08:25:33;98795.59;;;0.12;86.53
78309;BME280;67566;42.022;21.356;2023-12-20T08:27:59;98800.38;;;0.15;86.23
78309;BME280;67566;42.022;21.356;2023-12-20T08:30:24;98808.00;;;0.16;87.02
78309;BME280;67566;42.022;21.356;2023-12-20T08:32:50;98800.81;;;0.12;86.40
78309;BME280;67566;42.022;21.356;2023-12-20T08:35:15;98789.91;;;0.15;86.92
78309;BME280;67566;42.022;21.356;2023-12-20T08:37:41;98790.47;;;0.17;87.21
78309;BME280;67566;42.022;21.356;2023-12-20T08:40:07;98784.78;;;0.20;86.75
78309;BME280;67566;42.022;21.356;2023-12-20T08:42:32;98783.88;;;0.14;87.00
78309;BME280;67566;42.022;21.356;2023-12-20T08:44:58;98786.72;;;0.13;87.11
78309;BME280;67566;42.022;21.356;2023-12-20T08:47:24;98783.66;;;0.16;86.97
78309;BME280;67566;42.022;21.356;2023-12-20T08:49:50;98776.69;;;0.22;86.71
78309;BME280;67566;42.022;21.356;2023-12-20T08:52:15;98775.22;;;0.26;87.27
78309;BME280;67566;42.022;21.356;2023-12-20T08:54:41;98773.16;;;0.28;87.57
78309;BME280;67566;42.022;21.356;2023-12-20T08:57:06;98773.16;;;0.28;87.28
78309;BME280;67566;42.022;21.356;2023-12-20T08:59:32;98772.81;;;0.36;87.56
78309;BME280;67566;42.022;21.356;2023-12-20T09:01:58;98765.28;;;0.40;87.52
78309;BME280;67566;42.022;21.356;2023-12-20T09:04:23;98753.94;;;0.34;87.44
78309;BME280;67566;42.022;21.356;2023-12-20T09:06:49;98751.63;;;0.37;87.46
78309;BME280;67566;42.022;21.356;2023-12-20T09:09:15;98744.34;;;0.40;87.41
78309;BME280;67566;42.022;21.356;2023-12-20T09:11:40;98740.50;;;0.42;87.46
78309;BME280;67566;42.022;21.356;2023-12-20T09:14:06;98732.72;;;0.47;87.73
78309;BME280;67566;42.022;21.356;2023-12-20T09:16:31;98727.56;;;0.52;87.38
78309;BME280;67566;42.022;21.356;2023-12-20T09:18:57;98727.69;;;0.57;87.50
78309;BME280;67566;42.022;21.356;2023-12-20T09:21:23;98724.16;;;0.64;87.78
78309;BME280;67566;42.022;21.356;2023-12-20T09:23:48;98722.75;;;0.61;87.43
78309;BME280;67566;42.022;21.356;2023-12-20T09:26:14;98711.13;;;0.69;88.05
78309;BME280;67566;42.022;21.356;2023-12-20T09:28:40;98704.31;;;0.68;88.17
78309;BME280;67566;42.022;21.356;2023-12-20T09:31:06;98709.50;;;0.80;88.03
78309;BME280;67566;42.022;21.356;2023-12-20T09:33:32;98698.09;;;0.86;87.75
78309;BME280;67566;42.022;21.356;2023-12-20T09:35:58;98696.47;;;0.97;87.76
78309;BME280;67566;42.022;21.356;2023-12-20T09:38:23;98688.13;;;1.00;87.84
78309;BME280;67566;42.022;21.356;2023-12-20T09:40:49;98688.69;;;1.02;87.91
78309;BME280;67566;42.022;21.356;2023-12-20T09:43:19;98670.88;;;1.04;87.68
78309;BME280;67566;42.022;21.356;2023-12-20T09:45:46;98671.13;;;1.02;87.63
78309;BME280;67566;42.022;21.356;2023-12-20T09:48:13;98665.78;;;0.97;87.57
78309;BME280;67566;42.022;21.356;2023-12-20T09:50:40;98662.78;;;1.05;87.43
78309;BME280;67566;42.022;21.356;2023-12-20T09:53:09;98657.22;;;1.19;88.04
78309;BME280;67566;42.022;21.356;2023-12-20T09:55:36;98652.28;;;1.22;87.24
78309;BME280;67566;42.022;21.356;2023-12-20T09:58:02;98640.94;;;1.17;87.07
78309;BME280;67566;42.022;21.356;2023-12-20T10:00:27;98635.78;;;1.22;87.20
78309;BME280;67566;42.022;21.356;2023-12-20T10:02:57;98628.97;;;1.21;87.22
78309;BME280;67566;42.022;21.356;2023-12-20T10:05:28;98616.25;;;1.29;87.39
78309;BME280;67566;42.022;21.356;2023-12-20T10:07:54;98611.16;;;1.23;87.21
78309;BME280;67566;42.022;21.356;2023-12-20T10:10:19;98611.72;;;1.25;86.84
78309;BME280;67566;42.022;21.356;2023-12-20T10:13:05;98593.75;;;1.34;87.17
78309;BME280;67566;42.022;21.356;2023-12-20T10:15:32;98586.50;;;1.41;87.19
78309;BME280;67566;42.022;21.356;2023-12-20T10:17:58;98581.88;;;1.48;87.26
78309;BME280;67566;42.022;21.356;2023-12-20T10:20:24;98584.56;;;1.53;86.82
78309;BME280;67566;42.022;21.356;2023-12-20T10:22:51;98576.84;;;1.63;86.75
78309;BME280;67566;42.022;21.356;2023-12-20T10:25:20;98568.03;;;1.75;87.20
78309;BME280;67566;42.022;21.356;2023-12-20T10:27:46;98563.09;;;1.78;87.16
78309;BME280;67566;42.022;21.356;2023-12-20T10:30:11;98558.72;;;1.84;86.09
78309;BME280;67566;42.022;21.356;2023-12-20T10:32:37;98555.19;;;1.95;86.50
78309;BME280;67566;42.022;21.356;2023-12-20T10:35:03;98554.88;;;1.92;86.11
78309;BME280;67566;42.022;21.356;2023-12-20T10:37:28;98552.44;;;1.85;87.33
78309;BME280;67566;42.022;21.356;2023-12-20T10:39:54;98549.63;;;1.92;86.67
78309;BME280;67566;42.022;21.356;2023-12-20T10:42:25;98545.44;;;1.91;86.81
78309;BME280;67566;42.022;21.356;2023-12-20T10:44:51;98541.03;;;1.96;86.83
78309;BME280;67566;42.022;21.356;2023-12-20T10:47:19;98529.47;;;1.97;86.51
78309;BME280;67566;42.022;21.356;2023-12-20T10:49:45;98523.19;;;1.98;86.58
78309;BME280;67566;42.022;21.356;2023-12-20T10:52:12;98510.06;;;1.98;86.74
78309;BME280;67566;42.022;21.356;2023-12-20T10:54:39;98506.94;;;2.01;86.49
78309;BME280;67566;42.022;21.356;2023-12-20T10:57:05;98502.25;;;2.03;86.50
78309;BME280;67566;42.022;21.356;2023-12-20T10:59:33;98492.75;;;2.02;86.59
78309;BME280;67566;42.022;21.356;2023-12-20T11:02:03;98488.88;;;2.05;86.61
78309;BME280;67566;42.022;21.356;2023-12-20T11:04:46;98488.09;;;2.10;86.58
78309;BME280;67566;42.022;21.356;2023-12-20T11:07:32;98479.25;;;2.16;86.33
78309;BME280;67566;42.022;21.356;2023-12-20T11:10:03;98467.19;;;2.20;86.59
78309;BME280;67566;42.022;21.356;2023-12-20T11:15:35;98451.97;;;2.49;85.63
78309;BME280;67566;42.022;21.356;2023-12-20T11:18:00;98453.34;;;2.62;86.22
78309;BME280;67566;42.022;21.356;2023-12-20T11:20:39;98450.81;;;2.72;86.09
78309;BME280;67566;42.022;21.356;2023-12-20T11:23:06;98443.53;;;2.84;86.07
78309;BME280;67566;42.022;21.356;2023-12-20T11:25:56;98438.59;;;2.93;85.84
78309;BME280;67566;42.022;21.356;2023-12-20T11:28:24;98428.09;;;2.98;85.82
78309;BME280;67566;42.022;21.356;2023-12-20T11:30:54;98429.94;;;2.98;85.31
78309;BME280;67566;42.022;21.356;2023-12-20T11:33:24;98425.53;;;3.09;85.33
78309;BME280;67566;42.022;21.356;2023-12-20T11:35:50;98408.47;;;3.16;85.12
78309;BME280;67566;42.022;21.356;2023-12-20T11:38:16;98409.03;;;3.24;85.25
78309;BME280;67566;42.022;21.356;2023-12-20T11:40:42;98411.16;;;3.32;85.58
78309;BME280;67566;42.022;21.356;2023-12-20T11:43:09;98407.28;;;3.45;85.64
78309;BME280;67566;42.022;21.356;2023-12-20T11:45:35;98403.34;;;3.52;85.39
78309;BME280;67566;42.022;21.356;2023-12-20T11:48:02;98393.88;;;3.62;85.46
78309;BME280;67566;42.022;21.356;2023-12-20T11:50:28;98386.28;;;3.75;85.35
78309;BME280;67566;42.022;21.356;2023-12-20T11:52:55;98379.22;;;3.86;84.58
78309;BME280;67566;42.022;21.356;2023-12-20T11:55:21;98366.84;;;3.97;84.75
78309;BME280;67566;42.022;21.356;2023-12-20T11:57:47;98371.03;;;4.08;84.41
78309;BME280;67566;42.022;21.356;2023-12-20T12:00:13;98372.66;;;4.14;84.41
78309;BME280;67566;42.022;21.356;2023-12-20T12:02:39;98363.66;;;4.21;84.33
78309;BME280;67566;42.022;21.356;2023-12-20T12:05:06;98359.44;;;4.35;83.96
78309;BME280;67566;42.022;21.356;2023-12-20T12:07:33;98355.50;;;4.43;83.64
78309;BME280;67566;42.022;21.356;2023-12-20T12:09:59;98347.06;;;4.51;83.43
78309;BME280;67566;42.022;21.356;2023-12-20T12:12:25;98343.06;;;4.59;83.13
78309;BME280;67566;42.022;21.356;2023-12-20T12:14:52;98342.28;;;4.63;83.16
78309;BME280;67566;42.022;21.356;2023-12-20T12:17:18;98340.16;;;4.70;83.08
78309;BME280;67566;42.022;21.356;2023-12-20T12:19:43;98328.25;;;4.73;82.96
78309;BME280;67566;42.022;21.356;2023-12-20T12:22:10;98324.31;;;4.81;82.55
78309;BME280;67566;42.022;21.356;2023-12-20T12:24:46;98323.47;;;4.85;82.23
78309;BME280;67566;42.022;21.356;2023-12-20T12:27:12;98317.91;;;4.92;82.03
78309;BME280;67566;42.022;21.356;2023-12-20T12:29:39;98313.66;;;4.96;81.88
78309;BME280;67566;42.022;21.356;2023-12-20T12:32:09;98314.72;;;5.00;81.26
78309;BME280;67566;42.022;21.356;2023-12-20T12:34:35;98314.19;;;5.03;81.47
78309;BME280;67566;42.022;21.356;2023-12-20T12:37:01;98309.41;;;5.10;80.70
78309;BME280;67566;42.022;21.356;2023-12-20T12:39:27;98301.19;;;5.17;80.50
78309;BME280;67566;42.022;21.356;2023-12-20T12:41:55;98306.69;;;5.26;80.58
78309;BME280;67566;42.022;21.356;2023-12-20T12:44:20;98307.22;;;5.28;80.51
78309;BME280;67566;42.022;21.356;2023-12-20T12:46:49;98298.47;;;5.27;80.17
78309;BME280;67566;42.022;21.356;2023-12-20T12:49:19;98307.97;;;5.34;79.51
78309;BME280;67566;42.022;21.356;2023-12-20T12:51:45;98299.22;;;5.38;79.54
78309;BME280;67566;42.022;21.356;2023-12-20T12:54:12;98296.84;;;5.42;79.89